createdAt,value
2023-10-11T00:01:21.531Z,95235.03
2023-10-11T00:03:54.729Z,95210.47
2023-10-11T00:06:25.874Z,95221.19
2023-10-11T00:08:54.200Z,95218.59
2023-10-11T00:11:31.613Z,95217.94
2023-10-11T00:13:59.827Z,95223.16
2023-10-11T00:16:32.995Z,95216.66
2023-10-11T00:19:01.370Z,95225.44
2023-10-11T00:21:42.696Z,95227.38
2023-10-11T00:24:11.278Z,95224.00
2023-10-11T00:26:41.574Z,95221.25
2023-10-11T00:29:13.095Z,95232.97
2023-10-11T00:31:41.430Z,95231.97
2023-10-11T00:34:12.114Z,95221.06
2023-10-11T00:36:46.463Z,95195.53
2023-10-11T00:39:19.133Z,95219.13
2023-10-11T00:41:50.632Z,95202.84
2023-10-11T00:44:21.717Z,95209.50
2023-10-11T00:46:58.903Z,95222.22
2023-10-11T00:49:36.059Z,95213.72
2023-10-11T00:52:08.198Z,95226.44
2023-10-11T00:54:36.707Z,95201.38
2023-10-11T00:57:05.924Z,95212.13
2023-10-11T00:59:34.139Z,95216.03
2023-10-11T01:02:02.239Z,95197.97
2023-10-11T01:04:36.289Z,95228.59
2023-10-11T01:07:09.441Z,95208.56
2023-10-11T01:09:39.202Z,95233.44
2023-10-11T01:12:07.802Z,95239.81
2023-10-11T01:14:46.760Z,95237.19
2023-10-11T01:17:15.964Z,95234.75
2023-10-11T01:19:44.038Z,95193.41
2023-10-11T01:22:13.440Z,95234.94
2023-10-11T01:24:42.803Z,95231.50
2023-10-11T01:27:14.872Z,95224.16
2023-10-11T01:29:43.318Z,95248.75
2023-10-11T01:32:11.803Z,95253.44
2023-10-11T01:34:39.891Z,95254.91
2023-10-11T01:37:08.600Z,95235.53
2023-10-11T01:39:38.550Z,95243.84
2023-10-11T01:42:06.903Z,95265.16
2023-10-11T01:44:37.675Z,95261.59
2023-10-11T01:47:06.601Z,95260.63
2023-10-11T01:49:40.539Z,95262.75
2023-10-11T01:52:09.350Z,95266.00
2023-10-11T01:54:38.885Z,95261.63
2023-10-11T01:57:06.980Z,95266.81
2023-10-11T01:59:35.931Z,95257.06
2023-10-11T02:02:04.949Z,95269.09
2023-10-11T02:04:33.203Z,95267.78
2023-10-11T02:07:01.347Z,95262.75
2023-10-11T02:09:29.489Z,95267.16
2023-10-11T02:11:59.660Z,95263.09
2023-10-11T02:14:29.570Z,95269.41
2023-10-11T02:16:58.764Z,95270.22
2023-10-11T02:19:27.090Z,95277.22
2023-10-11T02:21:56.423Z,95273.63
2023-10-11T02:24:27.823Z,95272.03
2023-10-11T02:26:58.097Z,95282.44
2023-10-11T02:29:29.106Z,95277.53
2023-10-11T02:31:59.757Z,95283.09
2023-10-11T02:34:28.945Z,95286.66
2023-10-11T02:36:59.439Z,95292.50
2023-10-11T02:39:33.673Z,95288.94
2023-10-11T02:42:03.240Z,95296.88
2023-10-11T02:44:32.841Z,95296.06
2023-10-11T02:47:01.184Z,95298.00
2023-10-11T02:49:33.525Z,95298.00
2023-10-11T02:52:07.728Z,95300.31
2023-10-11T02:54:40.011Z,95292.47
2023-10-11T02:57:10.025Z,95306.94
2023-10-11T02:59:45.812Z,95278.44
2023-10-11T03:02:16.645Z,95292.75
2023-10-11T03:04:45.630Z,95307.44
2023-10-11T03:07:22.835Z,95301.41
2023-10-11T03:09:51.572Z,95311.13
2023-10-11T03:12:21.005Z,95319.28
2023-10-11T03:14:56.302Z,95318.16
2023-10-11T03:17:25.042Z,95322.34
2023-10-11T03:19:54.129Z,95318.28
2023-10-11T03:22:22.571Z,95312.94
2023-10-11T03:24:55.371Z,95322.03
2023-10-11T03:27:25.021Z,95329.88
2023-10-11T03:29:56.620Z,95320.44
2023-10-11T03:32:28.349Z,95305.13
2023-10-11T03:34:57.068Z,95324.56
2023-10-11T03:37:29.608Z,95311.69
2023-10-11T03:39:58.572Z,95302.56
2023-10-11T03:42:51.615Z,95321.50
2023-10-11T03:45:28.937Z,95330.59
2023-10-11T03:47:59.390Z,95327.19
2023-10-11T03:50:35.026Z,95338.28
2023-10-11T03:53:12.389Z,95345.78
2023-10-11T03:55:47.267Z,95335.69
2023-10-11T03:58:30.964Z,95317.47
2023-10-11T04:01:07.127Z,95336.00
2023-10-11T04:03:35.899Z,95346.63
2023-10-11T04:06:15.102Z,95354.44
2023-10-11T04:08:45.433Z,95346.59
2023-10-11T04:11:19.984Z,95350.22
2023-10-11T04:13:50.652Z,95351.34
2023-10-11T04:16:20.694Z,95357.53
2023-10-11T04:18:53.512Z,95352.47
2023-10-11T04:21:45.512Z,95365.84
2023-10-11T04:24:21.880Z,95325.28
2023-10-11T04:26:55.206Z,95361.78
2023-10-11T04:29:24.945Z,95368.78
2023-10-11T04:32:15.432Z,95377.25
2023-10-11T04:34:56.962Z,95369.28
2023-10-11T04:37:35.278Z,95360.47
2023-10-11T04:40:23.419Z,95374.63
2023-10-11T04:43:06.735Z,95373.16
2023-10-11T04:45:55.914Z,95363.72
2023-10-11T04:48:35.028Z,95369.91
2023-10-11T04:51:23.837Z,95364.03
2023-10-11T04:53:58.365Z,95390.13
2023-10-11T04:56:45.842Z,95372.34
2023-10-11T04:59:19.199Z,95390.94
2023-10-11T05:02:00.077Z,95401.53
2023-10-11T05:04:33.861Z,95397.91
2023-10-11T05:07:09.312Z,95394.69
2023-10-11T05:09:41.707Z,95395.16
2023-10-11T05:12:14.142Z,95407.69
2023-10-11T05:14:58.286Z,95402.81
2023-10-11T05:17:40.471Z,95415.03
2023-10-11T05:20:45.534Z,95409.97
2023-10-11T05:23:15.437Z,95407.88
2023-10-11T05:25:57.847Z,95405.72
2023-10-11T05:28:31.751Z,95418.94
2023-10-11T05:31:21.134Z,95404.13
2023-10-11T05:34:06.988Z,95417.16
2023-10-11T05:36:42.022Z,95411.59
2023-10-11T05:39:27.617Z,95406.19
2023-10-11T05:42:14.411Z,95391.38
2023-10-11T05:45:00.513Z,95414.50
2023-10-11T05:47:46.180Z,95412.69
2023-10-11T05:50:31.679Z,95394.16
2023-10-11T05:53:01.256Z,95427.06
2023-10-11T05:55:29.986Z,95421.22
2023-10-11T05:58:03.421Z,95430.97
2023-10-11T06:00:35.739Z,95423.81
2023-10-11T06:03:04.627Z,95432.66
2023-10-11T06:05:41.135Z,95441.41
2023-10-11T06:08:17.379Z,95420.44
2023-10-11T06:10:46.075Z,95444.72
2023-10-11T06:13:15.905Z,95451.53
2023-10-11T06:16:00.344Z,95453.50
2023-10-11T06:18:40.750Z,95451.88
2023-10-11T06:21:20.369Z,95474.03
2023-10-11T06:23:53.057Z,95467.50
2023-10-11T06:26:38.685Z,95469.63
2023-10-11T06:29:08.810Z,95466.38
2023-10-11T06:31:41.615Z,95465.19
2023-10-11T06:34:18.608Z,95472.38
2023-10-11T06:36:50.211Z,95469.44
2023-10-11T06:39:56.449Z,95477.09
2023-10-11T06:42:24.940Z,95462.09
2023-10-11T06:44:59.550Z,95483.59
2023-10-11T06:47:35.607Z,95458.34
2023-10-11T06:50:12.066Z,95495.81
2023-10-11T06:52:45.164Z,95487.66
2023-10-11T06:55:18.456Z,95477.72
2023-10-11T06:57:52.170Z,95493.34
2023-10-11T07:00:26.150Z,95499.22
2023-10-11T07:03:09.308Z,95497.41
2023-10-11T07:05:43.209Z,95492.19
2023-10-11T07:08:12.324Z,95472.94
2023-10-11T07:10:47.587Z,95493.09
2023-10-11T07:13:16.856Z,95482.13
2023-10-11T07:15:46.862Z,95477.06
2023-10-11T07:18:23.434Z,95475.53
2023-10-11T07:20:59.937Z,95446.69
2023-10-11T07:23:36.966Z,95469.34
2023-10-11T07:26:24.190Z,95462.34
2023-10-11T07:28:53.977Z,95447.19
2023-10-11T07:31:22.757Z,95445.22
2023-10-11T07:33:56.901Z,95442.69
2023-10-11T07:36:29.700Z,95447.97
2023-10-11T07:38:58.179Z,95432.47
2023-10-11T07:41:30.259Z,95450.72
2023-10-11T07:43:59.177Z,95465.31
2023-10-11T07:46:29.611Z,95466.06
2023-10-11T07:49:03.247Z,95449.28
2023-10-11T07:51:31.764Z,95476.84
2023-10-11T07:54:04.254Z,95477.75
2023-10-11T07:56:37.120Z,95482.75
2023-10-11T07:59:09.363Z,95487.28
2023-10-11T08:01:44.115Z,95467.31
2023-10-11T08:04:14.039Z,95482.38
2023-10-11T08:06:42.608Z,95486.09
2023-10-11T08:09:20.006Z,95487.59
2023-10-11T08:11:54.515Z,95489.75
2023-10-11T08:14:24.799Z,95469.88
2023-10-11T08:16:53.232Z,95494.53
2023-10-11T08:19:21.423Z,95497.69
2023-10-11T08:21:56.059Z,95501.16
2023-10-11T08:24:27.058Z,95486.97
2023-10-11T08:27:08.902Z,95477.72
2023-10-11T08:29:43.611Z,95505.28
2023-10-11T08:32:18.342Z,95497.47
2023-10-11T08:34:52.800Z,95465.00
2023-10-11T08:37:22.069Z,95505.59
2023-10-11T08:39:55.646Z,95483.78
2023-10-11T08:42:32.208Z,95471.22
2023-10-11T08:45:01.833Z,95492.81
2023-10-11T08:47:31.279Z,95482.84
2023-10-11T08:50:00.717Z,95479.53
2023-10-11T08:52:29.769Z,95482.00
2023-10-11T08:55:00.282Z,95478.34
2023-10-11T08:57:33.415Z,95479.69
2023-10-11T09:00:19.048Z,95481.06
2023-10-11T09:02:49.821Z,95487.91
2023-10-11T09:05:32.487Z,95472.75
2023-10-11T09:08:03.516Z,95475.97
2023-10-11T09:10:35.187Z,95472.09
2023-10-11T09:13:10.224Z,95481.84
2023-10-11T09:15:42.130Z,95483.56
2023-10-11T09:18:17.620Z,95472.97
2023-10-11T09:20:57.180Z,95484.59
2023-10-11T09:23:37.208Z,95481.06
2023-10-11T09:26:06.767Z,95483.03
2023-10-11T09:28:42.409Z,95471.53
2023-10-11T09:31:13.491Z,95467.22
2023-10-11T09:33:43.323Z,95454.34
2023-10-11T09:36:13.739Z,95471.63
2023-10-11T09:38:42.448Z,95473.28
2023-10-11T09:41:16.612Z,95458.44
2023-10-11T09:43:49.740Z,95444.06
2023-10-11T09:46:19.813Z,95452.03
2023-10-11T09:48:52.417Z,95463.78
2023-10-11T09:51:21.821Z,95448.13
2023-10-11T09:53:52.202Z,95457.22
2023-10-11T09:56:38.765Z,95453.06
2023-10-11T09:59:32.595Z,95450.31
2023-10-11T10:02:08.063Z,95453.84
2023-10-11T10:04:59.075Z,95447.66
2023-10-11T10:07:41.126Z,95448.66
2023-10-11T10:10:12.222Z,95450.19
2023-10-11T10:12:44.449Z,95446.66
2023-10-11T10:15:22.144Z,95437.69
2023-10-11T10:18:19.128Z,95436.41
2023-10-11T10:20:48.391Z,95430.06
2023-10-11T10:23:33.871Z,95427.16
2023-10-11T10:26:42.805Z,95424.81
2023-10-11T10:29:13.566Z,95420.00
2023-10-11T10:32:07.852Z,95414.88
2023-10-11T10:34:36.164Z,95398.34
2023-10-11T10:37:10.752Z,95393.41
2023-10-11T10:40:14.901Z,95410.13
2023-10-11T10:42:48.572Z,95407.69
2023-10-11T10:45:27.868Z,95405.53
2023-10-11T10:48:15.370Z,95398.72
2023-10-11T10:50:57.577Z,95378.38
2023-10-11T10:53:26.325Z,95388.31
2023-10-11T10:55:59.255Z,95376.22
2023-10-11T10:58:28.935Z,95370.75
2023-10-11T11:01:00.959Z,95384.09
2023-10-11T11:03:37.699Z,95359.22
2023-10-11T11:06:05.316Z,95365.38
2023-10-11T11:08:40.615Z,95367.97
2023-10-11T11:11:26.745Z,95361.59
2023-10-11T11:13:58.130Z,95375.50
2023-10-11T11:16:27.647Z,95380.91
2023-10-11T11:19:02.148Z,95367.53
2023-10-11T11:21:31.851Z,95368.50
2023-10-11T11:24:19.469Z,95361.94
2023-10-11T11:26:48.976Z,95368.38
2023-10-11T11:29:32.811Z,95366.75
2023-10-11T11:32:15.676Z,95359.34
2023-10-11T11:35:03.924Z,95357.19
2023-10-11T11:37:32.777Z,95363.66
2023-10-11T11:40:15.829Z,95362.66
2023-10-11T11:42:48.808Z,95350.84
2023-10-11T11:45:16.886Z,95353.97
2023-10-11T11:47:57.506Z,95353.75
2023-10-11T11:50:27.986Z,95348.88
2023-10-11T11:52:58.832Z,95343.09
2023-10-11T11:55:26.166Z,95352.97
2023-10-11T11:57:54.743Z,95335.31
2023-10-11T12:00:39.486Z,95335.31
2023-10-11T12:03:10.170Z,95334.84
2023-10-11T12:05:42.616Z,95341.28
2023-10-11T12:08:20.300Z,95334.78
2023-10-11T12:10:51.908Z,95332.72
2023-10-11T12:13:27.533Z,95332.50
2023-10-11T12:15:57.762Z,95337.22
2023-10-11T12:18:33.699Z,95335.09
2023-10-11T12:21:12.459Z,95340.09
2023-10-11T12:23:48.140Z,95319.34
2023-10-11T12:26:18.914Z,95324.72
2023-10-11T12:28:47.278Z,95328.53
2023-10-11T12:31:15.779Z,95324.25
2023-10-11T12:33:47.105Z,95324.41
2023-10-11T12:36:21.750Z,95318.38
2023-10-11T12:38:50.723Z,95321.19
2023-10-11T12:41:19.615Z,95327.06
2023-10-11T12:43:47.789Z,95325.56
2023-10-11T12:46:20.386Z,95321.81
2023-10-11T12:48:57.000Z,95327.44
2023-10-11T12:51:30.941Z,95314.31
2023-10-11T12:53:59.326Z,95314.88
2023-10-11T12:56:27.824Z,95317.56
2023-10-11T12:58:57.292Z,95313.28
2023-10-11T13:01:38.352Z,95320.69
2023-10-11T13:04:19.743Z,95322.59
2023-10-11T13:06:51.845Z,95317.00
2023-10-11T13:09:24.267Z,95309.25
2023-10-11T13:11:58.078Z,95302.59
2023-10-11T13:14:28.436Z,95310.25
2023-10-11T13:16:59.948Z,95300.38
2023-10-11T13:19:28.985Z,95306.22
2023-10-11T13:21:59.021Z,95299.31
2023-10-11T13:24:28.407Z,95293.06
2023-10-11T13:26:57.686Z,95298.25
2023-10-11T13:29:27.157Z,95284.69
2023-10-11T13:31:58.051Z,95294.19
2023-10-11T13:34:32.294Z,95288.81
2023-10-11T13:37:02.338Z,95267.72
2023-10-11T13:39:39.763Z,95276.28
2023-10-11T13:42:11.070Z,95283.28
2023-10-11T13:44:39.674Z,95269.06
2023-10-11T13:47:08.116Z,95276.56
2023-10-11T13:49:38.423Z,95276.31
2023-10-11T13:52:08.912Z,95271.13
2023-10-11T13:54:43.794Z,95282.56
2023-10-11T13:57:17.054Z,95280.81
2023-10-11T13:59:48.745Z,95268.13
2023-10-11T14:02:35.107Z,95275.28
2023-10-11T14:05:16.975Z,95272.31
2023-10-11T14:07:52.413Z,95258.66
2023-10-11T14:10:25.125Z,95272.03
2023-10-11T14:12:53.593Z,95273.59
2023-10-11T14:15:23.832Z,95270.31
2023-10-11T14:17:52.660Z,95260.53
2023-10-11T14:20:25.415Z,95259.78
2023-10-11T14:22:55.930Z,95258.94
2023-10-11T14:25:25.811Z,95252.22
2023-10-11T14:27:54.583Z,95251.38
2023-10-11T14:30:23.416Z,95253.84
2023-10-11T14:32:51.946Z,95251.91
2023-10-11T14:35:22.391Z,95264.38
2023-10-11T14:37:50.572Z,95262.56
2023-10-11T14:40:24.835Z,95259.94
2023-10-11T14:42:53.116Z,95263.19
2023-10-11T14:45:23.378Z,95272.75
2023-10-11T14:47:54.252Z,95273.09
2023-10-11T14:50:24.674Z,95258.28
2023-10-11T14:52:53.383Z,95269.19
2023-10-11T14:55:25.392Z,95275.69
2023-10-11T14:57:54.079Z,95275.72
2023-10-11T15:00:24.286Z,95258.41
2023-10-11T15:02:53.806Z,95266.78
2023-10-11T15:05:22.915Z,95275.63
2023-10-11T15:07:53.223Z,95286.53
2023-10-11T15:10:25.175Z,95279.84
2023-10-11T15:12:56.666Z,95282.38
2023-10-11T15:15:28.458Z,95268.78
2023-10-11T15:18:02.649Z,95278.53
2023-10-11T15:20:33.768Z,95281.84
2023-10-11T15:23:03.280Z,95273.78
2023-10-11T15:25:33.418Z,95279.94
2023-10-11T15:28:02.602Z,95299.03
2023-10-11T15:30:31.126Z,95283.59
2023-10-11T15:32:59.546Z,95284.19
2023-10-11T15:35:28.088Z,95281.53
2023-10-11T15:37:56.592Z,95293.28
2023-10-11T15:40:28.580Z,95268.38
2023-10-11T15:42:59.227Z,95277.22
2023-10-11T15:45:27.820Z,95292.56
2023-10-11T15:47:56.502Z,95294.16
2023-10-11T15:50:24.602Z,95289.63
2023-10-11T15:52:54.411Z,95288.22
2023-10-11T15:55:24.099Z,95301.91
2023-10-11T15:57:52.359Z,95304.06
2023-10-11T16:00:22.457Z,95310.94
2023-10-11T16:02:53.497Z,95298.59
2023-10-11T16:05:23.899Z,95299.78
2023-10-11T16:07:56.349Z,95288.72
2023-10-11T16:10:30.682Z,95315.03
2023-10-11T16:13:06.375Z,95307.66
2023-10-11T16:15:42.282Z,95324.91
2023-10-11T16:18:11.206Z,95311.78
2023-10-11T16:20:43.612Z,95283.47
2023-10-11T16:23:12.396Z,95316.47
2023-10-11T16:25:47.260Z,95315.06
2023-10-11T16:28:17.506Z,95316.72
2023-10-11T16:30:58.652Z,95326.66
2023-10-11T16:33:30.845Z,95319.97
2023-10-11T16:36:07.224Z,95326.63
2023-10-11T16:38:37.518Z,95324.22
2023-10-11T16:41:10.253Z,95308.56
2023-10-11T16:43:45.467Z,95322.53
2023-10-11T16:46:30.555Z,95289.50
2023-10-11T16:49:05.042Z,95336.44
2023-10-11T16:51:37.396Z,95336.00
2023-10-11T16:54:08.213Z,95308.84
2023-10-11T16:56:44.171Z,95338.38
2023-10-11T16:59:14.421Z,95345.25
2023-10-11T17:01:53.225Z,95340.56
2023-10-11T17:04:22.273Z,95315.22
2023-10-11T17:07:01.457Z,95346.72
2023-10-11T17:09:36.693Z,95336.63
2023-10-11T17:12:15.469Z,95349.53
2023-10-11T17:14:45.141Z,95354.38
2023-10-11T17:17:16.928Z,95339.81
2023-10-11T17:19:45.609Z,95351.88
2023-10-11T17:22:20.895Z,95343.50
2023-10-11T17:24:49.838Z,95368.81
2023-10-11T17:27:19.506Z,95349.72
2023-10-11T17:29:48.720Z,95356.16
2023-10-11T17:32:18.418Z,95359.75
2023-10-11T17:34:46.447Z,95368.88
2023-10-11T17:37:16.467Z,95358.91
2023-10-11T17:39:44.655Z,95371.41
2023-10-11T17:42:14.176Z,95337.19
2023-10-11T17:44:45.950Z,95376.72
2023-10-11T17:47:14.383Z,95376.88
2023-10-11T17:49:44.149Z,95380.06
2023-10-11T17:52:12.849Z,95384.16
2023-10-11T17:54:43.138Z,95384.34
2023-10-11T17:57:12.419Z,95354.72
2023-10-11T17:59:40.764Z,95375.31
2023-10-11T18:02:10.168Z,95389.41
2023-10-11T18:04:38.561Z,95388.25
2023-10-11T18:07:08.202Z,95381.03
2023-10-11T18:09:36.392Z,95372.41
2023-10-11T18:12:06.070Z,95367.28
2023-10-11T18:14:34.603Z,95399.97
2023-10-11T18:17:02.822Z,95375.94
2023-10-11T18:19:31.662Z,95386.63
2023-10-11T18:22:01.476Z,95401.25
2023-10-11T18:24:31.235Z,95401.88
2023-10-11T18:27:01.495Z,95398.72
2023-10-11T18:29:29.909Z,95402.16
2023-10-11T18:31:58.049Z,95383.19
2023-10-11T18:34:26.986Z,95397.44
2023-10-11T18:36:55.077Z,95403.97
2023-10-11T18:39:24.038Z,95399.06
2023-10-11T18:41:53.677Z,95394.09
2023-10-11T18:44:21.896Z,95401.69
2023-10-11T18:46:50.393Z,95404.28
2023-10-11T18:49:18.593Z,95385.59
2023-10-11T18:51:46.727Z,95382.03
2023-10-11T18:54:16.541Z,95398.84
2023-10-11T18:56:44.811Z,95402.63
2023-10-11T18:59:14.451Z,95398.00
2023-10-11T19:01:42.807Z,95405.75
2023-10-11T19:04:13.284Z,95405.19
2023-10-11T19:06:41.566Z,95405.84
2023-10-11T19:09:10.393Z,95391.19
2023-10-11T19:11:38.857Z,95410.81
2023-10-11T19:14:07.076Z,95403.84
2023-10-11T19:16:36.640Z,95408.22
2023-10-11T19:19:04.913Z,95400.47
2023-10-11T19:21:33.002Z,95398.38
2023-10-11T19:24:05.060Z,95413.69
2023-10-11T19:26:33.173Z,95410.75
2023-10-11T19:29:01.561Z,95413.59
2023-10-11T19:31:29.832Z,95407.09
2023-10-11T19:34:01.884Z,95405.47
2023-10-11T19:36:32.687Z,95385.50
2023-10-11T19:39:03.482Z,95402.72
2023-10-11T19:41:31.496Z,95412.34
2023-10-11T19:44:00.099Z,95411.25
2023-10-11T19:46:28.329Z,95403.13
2023-10-11T19:48:59.564Z,95411.97
2023-10-11T19:51:29.149Z,95403.81
2023-10-11T19:53:57.469Z,95420.47
2023-10-11T19:56:26.261Z,95411.06
2023-10-11T19:58:54.412Z,95415.06
2023-10-11T20:01:24.668Z,95416.81
2023-10-11T20:03:55.272Z,95423.34
2023-10-11T20:06:24.081Z,95423.19
2023-10-11T20:08:55.442Z,95420.16
2023-10-11T20:11:24.463Z,95427.81
2023-10-11T20:13:52.685Z,95408.28
2023-10-11T20:16:20.934Z,95413.00
2023-10-11T20:18:51.104Z,95421.31
2023-10-11T20:21:20.904Z,95422.28
2023-10-11T20:23:50.064Z,95420.34
2023-10-11T20:26:21.542Z,95424.94
2023-10-11T20:28:50.620Z,95405.72
2023-10-11T20:31:19.204Z,95419.75
2023-10-11T20:33:49.197Z,95421.69
2023-10-11T20:36:17.497Z,95429.88
2023-10-11T20:38:45.616Z,95428.06
2023-10-11T20:41:14.383Z,95415.72
2023-10-11T20:43:43.886Z,95432.66
2023-10-11T20:46:13.097Z,95426.97
2023-10-11T20:48:43.325Z,95430.44
2023-10-11T20:51:12.625Z,95433.19
2023-10-11T20:53:41.034Z,95435.00
2023-10-11T20:56:14.030Z,95433.84
2023-10-11T20:58:56.386Z,95428.81
2023-10-11T21:01:27.236Z,95414.97
2023-10-11T21:03:56.917Z,95420.50
2023-10-11T21:06:25.285Z,95417.75
2023-10-11T21:08:53.514Z,95427.03
2023-10-11T21:11:22.290Z,95420.34
2023-10-11T21:13:51.826Z,95416.13
2023-10-11T21:16:19.887Z,95423.13
2023-10-11T21:18:49.985Z,95421.19
2023-10-11T21:21:18.942Z,95422.00
2023-10-11T21:23:47.629Z,95421.34
2023-10-11T21:26:17.349Z,95428.84
2023-10-11T21:28:53.511Z,95427.06
2023-10-11T21:31:25.075Z,95430.81
2023-10-11T21:33:53.541Z,95427.56
2023-10-11T21:36:22.171Z,95423.34
2023-10-11T21:38:50.381Z,95420.72
2023-10-11T21:41:22.219Z,95432.13
2023-10-11T21:43:52.778Z,95431.66
2023-10-11T21:46:21.308Z,95437.84
2023-10-11T21:48:51.718Z,95422.84
2023-10-11T21:51:20.513Z,95440.16
2023-10-11T21:53:48.682Z,95435.25
2023-10-11T21:56:17.257Z,95428.06
2023-10-11T21:58:48.066Z,95431.19
2023-10-11T22:01:26.139Z,95431.34
2023-10-11T22:03:58.395Z,95433.97
2023-10-11T22:06:26.880Z,95426.44
2023-10-11T22:08:56.551Z,95430.69
2023-10-11T22:11:26.740Z,95426.63
2023-10-11T22:13:57.689Z,95427.75
2023-10-11T22:16:26.221Z,95424.81
2023-10-11T22:19:00.021Z,95427.75
2023-10-11T22:21:28.467Z,95426.75
2023-10-11T22:23:56.554Z,95419.94
2023-10-11T22:26:28.472Z,95436.22
2023-10-11T22:28:56.555Z,95422.53
2023-10-11T22:31:25.262Z,95431.66
2023-10-11T22:33:55.883Z,95422.38
2023-10-11T22:36:28.123Z,95418.28
2023-10-11T22:38:56.542Z,95426.44
2023-10-11T22:41:25.185Z,95433.13
2023-10-11T22:43:53.189Z,95425.13
2023-10-11T22:46:24.003Z,95428.06
2023-10-11T22:48:53.074Z,95428.22
2023-10-11T22:51:26.117Z,95412.09
2023-10-11T22:54:01.634Z,95420.41
2023-10-11T22:56:31.864Z,95402.81
2023-10-11T22:59:04.605Z,95402.63
2023-10-11T23:01:33.579Z,95411.44
2023-10-11T23:04:01.934Z,95408.50
2023-10-11T23:06:31.867Z,95417.81
2023-10-11T23:09:01.559Z,95412.09
2023-10-11T23:11:30.548Z,95413.72
2023-10-11T23:13:59.028Z,95423.59
2023-10-11T23:16:29.049Z,95418.88
2023-10-11T23:19:20.202Z,95420.34
2023-10-11T23:21:49.480Z,95424.41
2023-10-11T23:24:20.384Z,95428.00
2023-10-11T23:26:54.254Z,95414.94
2023-10-11T23:29:23.282Z,95416.56
2023-10-11T23:31:52.667Z,95410.34
2023-10-11T23:34:26.199Z,95416.53
2023-10-11T23:36:56.992Z,95413.59
2023-10-11T23:39:35.245Z,95417.84
2023-10-11T23:42:16.102Z,95425.31
2023-10-11T23:44:46.945Z,95423.53
2023-10-11T23:47:28.915Z,95424.84
2023-10-11T23:49:57.437Z,95428.59
2023-10-11T23:52:29.483Z,95427.75
2023-10-11T23:55:07.385Z,95410.66
2023-10-11T23:57:37.768Z,95416.81
